Time;durP1;ratioP1;P1;durP2;ratioP2;P2;SDS_P1;SDS_P2;PMS_P1;PMS_P2;Temp;Humidity;BMP_temperature;BMP_pressure;BME280_temperature;BME280_humidity;BME280_pressure;Samples;Min_cycle;Max_cycle;Signal;HPM_P1;HPM_P2
2021/03/22 00:01:24;;;;;;;14.80;6.80;;;10.80;48.80;;;;;;5010872;28;20198;-41
2021/03/22 00:03:49;;;;;;;19.77;8.37;;;10.90;48.80;;;;;;5013286;28;20205;-41
2021/03/22 00:06:15;;;;;;;18.60;7.47;;;10.90;48.80;;;;;;5013001;28;20198;-42
2021/03/22 00:08:40;;;;;;;17.13;8.00;;;10.90;48.70;;;;;;5010634;28;20194;-41
2021/03/22 00:11:06;;;;;;;16.23;7.27;;;10.90;48.70;;;;;;5011663;28;20206;-44
2021/03/22 00:13:32;;;;;;;23.60;8.90;;;10.90;48.70;;;;;;5010793;28;20316;-41
2021/03/22 00:16:05;;;;;;;16.67;6.97;;;10.80;48.70;;;;;;5013405;28;20230;-41
2021/03/22 00:18:36;;;;;;;17.83;7.50;;;10.80;48.60;;;;;;5012542;28;20436;-41
2021/03/22 00:21:04;;;;;;;21.37;9.00;;;10.80;48.60;;;;;;5010252;28;20464;-42
2021/03/22 00:23:29;;;;;;;13.27;6.70;;;10.80;48.80;;;;;;5004647;28;20922;-42
2021/03/22 00:25:55;;;;;;;19.43;8.00;;;10.80;48.90;;;;;;5011667;28;20463;-42
2021/03/22 00:28:22;;;;;;;22.73;9.30;;;10.70;48.80;;;;;;5011210;28;20264;-42
2021/03/22 00:30:49;;;;;;;17.10;7.47;;;10.70;48.90;;;;;;4992170;28;20198;-41
2021/03/22 00:33:17;;;;;;;16.60;9.37;;;10.70;49.10;;;;;;5007551;28;20988;-42
2021/03/22 00:35:43;;;;;;;15.97;7.47;;;10.70;49.10;;;;;;4999756;28;20433;-42
2021/03/22 00:38:09;;;;;;;22.20;8.63;;;10.60;49.10;;;;;;5012024;28;20451;-42
2021/03/22 00:40:38;;;;;;;17.27;8.30;;;10.60;49.10;;;;;;5011327;28;20474;-42
2021/03/22 00:43:04;;;;;;;15.07;7.50;;;10.60;49.10;;;;;;5003894;28;20444;-42
2021/03/22 00:45:31;;;;;;;20.83;8.60;;;10.60;49.80;;;;;;5003563;28;20563;-41
2021/03/22 00:47:56;;;;;;;20.17;8.60;;;10.50;49.30;;;;;;5004856;28;20441;-41
2021/03/22 00:50:29;;;;;;;16.83;8.70;;;10.50;49.40;;;;;;5009091;28;20944;-41
2021/03/22 00:52:55;;;;;;;19.20;8.90;;;10.50;49.40;;;;;;4997952;28;20234;-41
2021/03/22 00:55:22;;;;;;;13.70;7.03;;;10.50;50.00;;;;;;5009343;28;20488;-41
2021/03/22 00:57:47;;;;;;;15.77;8.30;;;10.50;49.40;;;;;;5010608;28;20443;-42
2021/03/22 01:00:24;;;;;;;18.17;6.50;;;10.50;49.20;;;;;;5011057;28;20441;-42
2021/03/22 01:02:50;;;;;;;22.00;8.80;;;10.50;49.20;;;;;;5001386;28;20563;-42
2021/03/22 01:05:16;;;;;;;15.50;7.20;;;10.50;49.20;;;;;;5011168;28;20433;-41
2021/03/22 01:07:48;;;;;;;14.23;7.50;;;10.50;49.20;;;;;;5056982;28;20562;-41
2021/03/22 01:10:40;;;;;;;11.63;6.80;;;10.40;49.30;;;;;;5067177;28;20445;-41
2021/03/22 01:13:14;;;;;;;15.83;7.07;;;10.40;49.40;;;;;;5062661;28;21266;-40
2021/03/22 01:15:40;;;;;;;19.33;7.17;;;10.40;49.40;;;;;;5055854;28;20439;-40
2021/03/22 01:18:06;;;;;;;20.30;7.73;;;10.40;49.30;;;;;;5049295;28;20865;-41
2021/03/22 01:20:37;;;;;;;17.90;7.40;;;10.40;49.40;;;;;;5061221;28;20515;-40
2021/03/22 01:23:03;;;;;;;14.57;7.40;;;10.40;49.40;;;;;;5060370;28;20945;-41
2021/03/22 01:25:29;;;;;;;15.50;6.50;;;10.40;49.40;;;;;;5058289;28;20435;-40
2021/03/22 01:27:55;;;;;;;21.00;7.07;;;10.40;49.40;;;;;;5062604;28;20249;-40
2021/03/22 01:30:26;;;;;;;11.90;6.33;;;10.40;49.30;;;;;;5058263;28;20275;-40
2021/03/22 01:32:52;;;;;;;12.67;7.43;;;10.40;49.30;;;;;;5064127;28;20441;-40
2021/03/22 01:35:18;;;;;;;12.57;5.97;;;10.30;49.30;;;;;;5055322;28;20431;-41
2021/03/22 01:37:44;;;;;;;10.20;6.73;;;10.30;49.30;;;;;;5060983;28;20196;-40
2021/03/22 01:40:24;;;;;;;26.20;7.10;;;10.40;49.40;;;;;;5054890;28;20433;-41
2021/03/22 01:43:06;;;;;;;11.60;6.20;;;10.40;49.50;;;;;;5056291;28;20683;-40
2021/03/22 01:45:31;;;;;;;14.93;5.90;;;10.30;49.60;;;;;;5062346;28;20922;-40
2021/03/22 01:47:57;;;;;;;14.20;5.30;;;10.30;49.40;;;;;;5057408;28;20489;-40
2021/03/22 01:50:26;;;;;;;12.40;6.00;;;10.30;49.40;;;;;;5060434;28;20207;-40
2021/03/22 01:52:53;;;;;;;16.43;6.03;;;10.30;49.20;;;;;;5060888;28;20193;-40
2021/03/22 01:55:20;;;;;;;17.90;7.83;;;10.40;49.30;;;;;;5062041;28;20461;-41
2021/03/22 01:57:46;;;;;;;10.80;5.87;;;10.40;49.30;;;;;;5055700;28;20435;-40
2021/03/22 02:00:29;;;;;;;14.73;6.30;;;10.30;49.20;;;;;;5061199;28;20480;-42
2021/03/22 02:03:14;;;;;;;14.20;7.97;;;10.20;49.60;;;;;;5058514;28;20442;-40
2021/03/22 02:05:44;;;;;;;17.30;6.80;;;10.20;49.70;;;;;;5059300;28;20842;-40
2021/03/22 02:08:23;;;;;;;17.73;8.30;;;10.20;49.80;;;;;;5063921;28;20443;-40
2021/03/22 02:10:49;;;;;;;17.97;7.53;;;10.30;49.80;;;;;;5065281;28;20446;-40
2021/03/22 02:13:19;;;;;;;18.10;7.17;;;10.30;49.80;;;;;;5064040;28;20996;-41
2021/03/22 02:15:46;;;;;;;16.90;7.30;;;10.30;49.80;;;;;;5059155;28;20449;-40
2021/03/22 02:18:34;;;;;;;14.17;6.60;;;10.30;49.90;;;;;;5049079;28;20462;-41
2021/03/22 02:21:28;;;;;;;17.40;7.97;;;10.30;49.80;;;;;;5041360;28;20454;-41
2021/03/22 02:24:14;;;;;;;20.10;7.03;;;10.30;50.00;;;;;;5046066;28;20446;-41
2021/03/22 02:26:48;;;;;;;29.87;6.80;;;10.20;50.00;;;;;;5038826;28;20532;-41
2021/03/22 02:30:04;;;;;;;11.97;4.93;;;9.90;50.90;;;;;;5050223;28;20437;-40
2021/03/22 02:32:54;;;;;;;17.53;5.27;;;10.00;49.70;;;;;;4995091;28;20441;-41
2021/03/22 02:35:42;;;;;;;14.57;5.20;;;10.10;49.30;;;;;;5041846;28;20439;-40
2021/03/22 02:38:09;;;;;;;22.37;5.00;;;10.10;49.00;;;;;;5045291;28;20484;-40
2021/03/22 02:40:34;;;;;;;15.20;5.30;;;10.00;48.80;;;;;;5048039;28;20978;-41
2021/03/22 02:43:03;;;;;;;16.67;4.60;;;10.10;49.00;;;;;;5042080;28;20439;-40
2021/03/22 02:45:41;;;;;;;11.53;4.37;;;10.10;48.80;;;;;;5050392;28;20204;-40
2021/03/22 02:48:14;;;;;;;19.20;4.53;;;10.10;48.50;;;;;;5039149;28;20443;-41
2021/03/22 02:50:42;;;;;;;14.43;4.50;;;10.20;48.40;;;;;;5049819;28;20527;-41
2021/03/22 02:53:30;;;;;;;13.50;4.27;;;10.20;48.40;;;;;;5043762;28;20437;-40
2021/03/22 02:56:53;;;;;;;10.53;4.10;;;10.20;48.30;;;;;;5042314;28;20558;-40
2021/03/22 02:59:27;;;;;;;17.60;4.00;;;10.10;47.80;;;;;;5006189;28;20448;-40
2021/03/22 03:01:57;;;;;;;9.90;3.67;;;10.20;47.80;;;;;;4994936;28;20973;-41
2021/03/22 03:04:23;;;;;;;9.13;3.43;;;10.20;47.70;;;;;;5019512;28;20502;-40
2021/03/22 03:06:55;;;;;;;16.80;4.50;;;10.10;47.60;;;;;;5040718;28;20495;-40
2021/03/22 03:09:30;;;;;;;14.13;4.00;;;10.10;47.60;;;;;;5038439;28;20199;-40
2021/03/22 03:12:07;;;;;;;11.37;3.43;;;10.10;47.40;;;;;;5035631;28;20444;-40
2021/03/22 03:14:33;;;;;;;17.87;4.80;;;10.10;47.20;;;;;;5045800;28;20809;-40
2021/03/22 03:16:58;;;;;;;11.40;4.80;;;10.10;47.30;;;;;;5050902;28;20439;-40
2021/03/22 03:19:24;;;;;;;10.40;4.60;;;10.20;47.30;;;;;;5046144;28;20193;-41
2021/03/22 03:21:49;;;;;;;14.83;4.27;;;10.20;47.10;;;;;;5045455;28;20562;-40
2021/03/22 03:24:15;;;;;;;15.87;4.10;;;10.20;47.00;;;;;;5041442;28;20196;-41
2021/03/22 03:26:40;;;;;;;10.73;3.93;;;10.20;47.20;;;;;;5046587;28;20228;-40
2021/03/22 03:29:06;;;;;;;14.00;4.37;;;10.10;47.00;;;;;;5042401;28;20217;-41
2021/03/22 03:31:34;;;;;;;10.23;3.47;;;10.10;47.10;;;;;;5050473;28;20188;-40
2021/03/22 03:33:59;;;;;;;18.40;4.17;;;10.10;47.20;;;;;;5049952;28;20227;-41
2021/03/22 03:36:25;;;;;;;13.03;3.70;;;10.10;47.10;;;;;;5044660;28;20947;-40
2021/03/22 03:38:51;;;;;;;12.40;4.00;;;10.20;46.80;;;;;;5044295;28;20194;-40
2021/03/22 03:41:16;;;;;;;9.60;2.60;;;10.20;46.70;;;;;;5043328;28;20189;-40
2021/03/22 03:43:42;;;;;;;15.27;3.07;;;10.20;46.50;;;;;;5042763;28;20265;-40
2021/03/22 03:46:07;;;;;;;15.60;3.53;;;10.20;46.40;;;;;;5050091;28;20216;-40
2021/03/22 03:48:33;;;;;;;14.67;3.40;;;10.20;46.20;;;;;;5046363;28;20708;-40
2021/03/22 03:51:01;;;;;;;11.17;3.23;;;10.20;46.30;;;;;;5043853;28;20275;-40
2021/03/22 03:53:28;;;;;;;19.40;2.97;;;10.10;46.30;;;;;;5040908;28;20558;-40
2021/03/22 03:55:55;;;;;;;12.73;3.60;;;10.10;46.10;;;;;;5035428;28;20436;-40
2021/03/22 03:58:21;;;;;;;12.17;3.40;;;10.20;45.70;;;;;;5042928;28;20435;-41
2021/03/22 04:00:48;;;;;;;9.70;2.87;;;10.10;45.40;;;;;;5039485;28;20534;-40
2021/03/22 04:03:21;;;;;;;12.00;3.37;;;10.10;45.10;;;;;;5035107;28;20215;-41
2021/03/22 04:06:15;;;;;;;15.07;2.77;;;10.10;44.50;;;;;;5045074;28;20491;-41
2021/03/22 04:08:46;;;;;;;12.60;2.70;;;10.00;44.20;;;;;;5040525;28;20485;-40
2021/03/22 04:11:15;;;;;;;8.27;2.23;;;10.00;44.20;;;;;;5035084;28;20494;-40
2021/03/22 04:13:41;;;;;;;8.97;2.50;;;9.90;44.90;;;;;;5050497;28;20445;-41
2021/03/22 04:16:09;;;;;;;9.80;3.53;;;9.80;44.90;;;;;;5044792;28;20522;-40
2021/03/22 04:18:37;;;;;;;8.37;2.20;;;9.80;45.40;;;;;;5045760;28;20946;-40
2021/03/22 04:21:08;;;;;;;6.90;2.33;;;9.90;45.30;;;;;;5041407;28;20435;-40
2021/03/22 04:23:34;;;;;;;15.13;3.07;;;9.90;45.40;;;;;;5043872;28;20443;-40
2021/03/22 04:26:01;;;;;;;7.10;2.30;;;9.80;45.70;;;;;;5047105;28;20470;-40
2021/03/22 04:28:27;;;;;;;5.80;2.17;;;9.80;45.60;;;;;;5041879;28;20449;-40
2021/03/22 04:30:53;;;;;;;6.10;1.93;;;9.80;45.60;;;;;;5041164;28;20444;-40
2021/03/22 04:33:18;;;;;;;7.00;2.70;;;9.90;45.50;;;;;;5047981;28;20910;-41
2021/03/22 04:35:44;;;;;;;8.37;2.37;;;9.90;45.40;;;;;;5050320;28;20200;-41
2021/03/22 04:38:09;;;;;;;10.03;2.50;;;10.00;44.60;;;;;;5047584;28;20189;-40
2021/03/22 04:40:35;;;;;;;9.00;3.57;;;10.00;44.70;;;;;;5047155;28;20184;-41
2021/03/22 04:43:01;;;;;;;9.30;3.00;;;9.90;45.60;;;;;;5046358;28;20197;-40
2021/03/22 04:45:28;;;;;;;12.13;3.03;;;9.90;45.90;;;;;;5047268;28;20271;-40
2021/03/22 04:47:54;;;;;;;14.00;2.90;;;9.90;46.00;;;;;;5044034;28;20204;-40
2021/03/22 04:50:22;;;;;;;11.10;3.00;;;9.90;46.00;;;;;;5037853;28;20449;-41
2021/03/22 04:52:48;;;;;;;12.87;2.63;;;10.00;45.20;;;;;;5043184;28;20597;-40
2021/03/22 04:55:14;;;;;;;8.40;3.00;;;10.00;44.90;;;;;;5045395;28;20488;-40
2021/03/22 04:57:40;;;;;;;9.87;2.40;;;10.00;44.80;;;;;;5049699;28;20203;-40
2021/03/22 05:00:09;;;;;;;7.63;3.10;;;10.00;44.90;;;;;;5049260;28;20439;-41
2021/03/22 05:02:35;;;;;;;11.33;2.97;;;10.10;44.70;;;;;;5044070;28;20205;-40
2021/03/22 05:05:01;;;;;;;14.67;2.90;;;10.10;44.70;;;;;;5044566;28;20435;-40
2021/03/22 05:07:26;;;;;;;14.90;2.77;;;10.00;44.60;;;;;;5045138;28;20288;-41
2021/03/22 05:09:52;;;;;;;10.20;2.27;;;10.00;45.00;;;;;;5043988;28;20200;-40
2021/03/22 05:12:18;;;;;;;8.00;2.43;;;10.00;45.00;;;;;;5038792;28;20195;-42
2021/03/22 05:14:44;;;;;;;12.17;2.97;;;10.00;45.00;;;;;;5046411;28;20196;-40
2021/03/22 05:17:10;;;;;;;8.47;2.20;;;10.00;44.90;;;;;;5040732;28;20432;-40
2021/03/22 05:19:36;;;;;;;11.90;3.30;;;10.00;45.10;;;;;;5040280;28;20194;-41
2021/03/22 05:22:02;;;;;;;18.17;4.27;;;10.00;45.00;;;;;;5035385;28;20189;-40
2021/03/22 05:24:27;;;;;;;12.00;3.37;;;10.00;45.00;;;;;;5042439;28;20193;-41
2021/03/22 05:26:53;;;;;;;9.43;3.00;;;10.00;45.20;;;;;;5042424;28;20533;-40
2021/03/22 05:29:21;;;;;;;15.60;3.30;;;10.00;45.60;;;;;;5047677;28;20181;-41
2021/03/22 05:31:47;;;;;;;12.17;3.33;;;10.00;45.50;;;;;;5044502;28;20530;-40
2021/03/22 05:34:13;;;;;;;8.97;2.77;;;10.00;45.60;;;;;;5046556;28;20553;-40
2021/03/22 05:36:38;;;;;;;12.37;3.27;;;10.00;45.60;;;;;;5046668;28;20200;-40
2021/03/22 05:39:05;;;;;;;10.20;3.50;;;10.00;45.60;;;;;;5038126;28;20204;-40
2021/03/22 05:41:43;;;;;;;9.50;2.37;;;10.00;45.70;;;;;;5037144;28;20188;-40
2021/03/22 05:44:29;;;;;;;9.80;3.00;;;9.90;46.20;;;;;;5043048;28;20909;-41
2021/03/22 05:47:08;;;;;;;14.07;3.50;;;9.80;46.40;;;;;;5043326;28;20544;-40
2021/03/22 05:49:44;;;;;;;7.37;2.23;;;9.80;46.40;;;;;;5046481;28;20436;-40
2021/03/22 05:52:27;;;;;;;9.53;2.90;;;9.90;46.10;;;;;;5042121;28;20474;-40
2021/03/22 05:55:14;;;;;;;5.57;2.50;;;9.90;45.70;;;;;;5042965;28;20446;-40
2021/03/22 05:58:05;;;;;;;6.77;2.33;;;9.80;45.80;;;;;;5044151;28;20438;-40
2021/03/22 06:00:36;;;;;;;5.50;2.27;;;9.90;45.80;;;;;;5037661;28;20446;-40
2021/03/22 06:03:09;;;;;;;5.63;2.77;;;9.70;46.30;;;;;;5040565;28;20435;-40
2021/03/22 06:05:38;;;;;;;9.70;2.77;;;9.70;46.30;;;;;;5035745;28;20432;-40
2021/03/22 06:08:17;;;;;;;5.60;1.60;;;9.70;46.20;;;;;;5043977;28;20959;-40
2021/03/22 06:10:51;;;;;;;9.20;2.30;;;9.80;46.00;;;;;;5054230;28;20431;-40
2021/03/22 06:13:22;;;;;;;10.00;2.30;;;9.90;46.00;;;;;;5046063;28;20446;-40
2021/03/22 06:15:55;;;;;;;9.17;2.23;;;9.80;46.10;;;;;;5045227;28;20496;-40
2021/03/22 06:18:39;;;;;;;12.20;2.60;;;9.80;46.30;;;;;;5044687;28;20525;-40
2021/03/22 06:21:12;;;;;;;6.60;1.77;;;10.00;45.50;;;;;;5049629;28;20479;-40
2021/03/22 06:23:46;;;;;;;10.30;2.40;;;10.00;45.50;;;;;;5047133;28;20443;-40
2021/03/22 06:26:39;;;;;;;10.60;2.90;;;10.00;45.50;;;;;;5043632;28;20934;-40
2021/03/22 06:29:28;;;;;;;11.40;2.50;;;10.10;45.70;;;;;;5038744;28;20794;-39
2021/03/22 06:32:07;;;;;;;6.93;2.90;;;9.90;46.60;;;;;;5045606;28;20942;-40
2021/03/22 06:34:43;;;;;;;8.53;2.30;;;9.90;46.60;;;;;;5050849;28;20927;-40
2021/03/22 06:37:12;;;;;;;8.20;2.93;;;9.90;46.60;;;;;;5040354;28;20449;-40
2021/03/22 06:39:37;;;;;;;10.63;3.33;;;10.10;46.00;;;;;;5048904;28;20444;-40
2021/03/22 06:42:18;;;;;;;9.90;2.80;;;10.20;46.00;;;;;;5039929;28;20442;-40
2021/03/22 06:44:43;;;;;;;7.13;2.83;;;10.10;46.20;;;;;;5043693;28;20199;-39
2021/03/22 06:47:12;;;;;;;11.73;3.43;;;10.20;46.90;;;;;;5040305;28;20495;-41
2021/03/22 06:49:49;;;;;;;10.53;2.83;;;10.30;46.20;;;;;;5044333;28;20192;-39
2021/03/22 06:52:35;;;;;;;11.87;3.13;;;10.40;46.30;;;;;;5040999;28;20439;-40
2021/03/22 06:55:26;;;;;;;12.00;3.33;;;10.30;46.40;;;;;;5040480;28;20522;-40
2021/03/22 06:57:51;;;;;;;9.07;3.20;;;10.30;46.70;;;;;;5041004;28;20463;-40
2021/03/22 07:00:19;;;;;;;11.60;3.37;;;10.30;46.90;;;;;;5049613;28;20864;-40
2021/03/22 07:02:58;;;;;;;13.93;2.93;;;10.20;47.00;;;;;;5047045;28;20197;-40
2021/03/22 07:05:24;;;;;;;12.50;4.60;;;10.30;47.20;;;;;;5051162;28;20520;-40
2021/03/22 07:08:00;;;;;;;9.30;3.07;;;10.20;47.30;;;;;;5052468;28;20541;-40
2021/03/22 07:10:30;;;;;;;11.80;3.07;;;10.20;47.70;;;;;;5037483;28;20665;-40
2021/03/22 07:13:16;;;;;;;13.53;5.97;;;10.10;47.50;;;;;;5047202;28;20868;-40
2021/03/22 07:15:44;;;;;;;10.30;3.20;;;10.00;48.00;;;;;;5040873;28;20946;-40
2021/03/22 07:18:21;;;;;;;15.83;4.00;;;10.20;47.80;;;;;;5046978;28;20473;-40
2021/03/22 07:21:16;;;;;;;16.03;3.30;;;10.30;47.70;;;;;;5044899;28;20447;-40
2021/03/22 07:23:47;;;;;;;9.93;3.50;;;10.30;47.70;;;;;;5036299;28;20590;-40
2021/03/22 07:26:39;;;;;;;16.70;4.30;;;10.50;47.50;;;;;;5044666;28;20942;-40
2021/03/22 07:29:23;;;;;;;18.43;3.40;;;10.60;47.00;;;;;;5043375;28;21301;-40
2021/03/22 07:32:07;;;;;;;11.90;3.87;;;10.70;46.80;;;;;;5044715;28;20440;-40
2021/03/22 07:34:54;;;;;;;11.13;3.03;;;10.50;46.90;;;;;;5049819;28;20846;-40
2021/03/22 07:37:55;;;;;;;18.53;4.00;;;10.50;47.10;;;;;;5047194;28;20426;-40
2021/03/22 07:40:35;;;;;;;11.20;2.93;;;10.60;47.30;;;;;;5040777;28;20443;-40
2021/03/22 07:43:53;;;;;;;11.03;3.07;;;10.60;47.30;;;;;;5052055;28;20446;-40
2021/03/22 07:46:43;;;;;;;22.47;4.57;;;10.60;47.00;;;;;;5040638;28;20493;-40
2021/03/22 07:49:27;;;;;;;8.83;4.20;;;10.50;47.10;;;;;;5043589;28;20860;-40
2021/03/22 07:52:05;;;;;;;9.87;3.30;;;10.60;47.40;;;;;;5047172;28;20477;-40
2021/03/22 07:54:48;;;;;;;17.23;3.67;;;10.60;47.60;;;;;;5048403;28;20439;-40
2021/03/22 07:57:29;;;;;;;11.90;3.40;;;10.60;47.60;;;;;;5050597;28;20469;-40
2021/03/22 08:00:14;;;;;;;11.70;3.20;;;10.60;47.30;;;;;;5045245;28;20448;-40
2021/03/22 08:02:45;;;;;;;19.10;4.83;;;10.50;47.40;;;;;;5039962;28;20808;-40
2021/03/22 08:05:36;;;;;;;21.63;5.57;;;10.50;47.90;;;;;;5038593;28;20450;-40
2021/03/22 08:08:15;;;;;;;15.83;2.93;;;10.60;47.70;;;;;;5045319;28;20463;-40
2021/03/22 08:10:59;;;;;;;12.60;2.90;;;10.70;47.50;;;;;;5041695;28;20439;-40
2021/03/22 08:13:42;;;;;;;13.43;4.73;;;10.70;47.20;;;;;;5050856;28;20522;-40
2021/03/22 08:16:14;;;;;;;10.53;3.50;;;10.80;47.10;;;;;;5044853;28;20435;-40
2021/03/22 08:18:49;;;;;;;22.03;4.43;;;10.70;46.70;;;;;;5051214;28;20434;-40
2021/03/22 08:21:35;;;;;;;9.27;2.60;;;10.80;46.60;;;;;;5051495;28;20496;-40
2021/03/22 08:24:17;;;;;;;9.40;3.70;;;10.70;46.70;;;;;;5048131;28;20435;-40
2021/03/22 08:26:49;;;;;;;18.33;3.63;;;10.90;46.90;;;;;;5041780;28;20478;-40
2021/03/22 08:29:30;;;;;;;13.83;2.67;;;10.90;46.80;;;;;;5051487;28;20926;-40
2021/03/22 08:32:04;;;;;;;12.10;3.50;;;10.90;46.90;;;;;;5043946;28;20439;-40
2021/03/22 08:34:53;;;;;;;11.97;3.40;;;10.80;46.80;;;;;;5052009;28;20435;-40
2021/03/22 08:37:27;;;;;;;9.90;2.50;;;10.90;46.50;;;;;;5047045;28;20800;-40
2021/03/22 08:40:00;;;;;;;6.73;2.83;;;10.90;46.30;;;;;;5049195;28;20436;-40
2021/03/22 08:42:38;;;;;;;8.77;3.13;;;11.00;46.00;;;;;;5049857;28;20584;-40
2021/03/22 08:45:12;;;;;;;6.10;2.93;;;11.20;46.00;;;;;;5044004;28;20432;-40
2021/03/22 08:47:59;;;;;;;10.87;3.13;;;11.40;45.40;;;;;;5037629;28;20482;-40
2021/03/22 08:50:28;;;;;;;7.27;3.13;;;11.50;45.30;;;;;;5047398;28;20467;-40
2021/03/22 08:53:00;;;;;;;10.87;2.80;;;11.60;45.30;;;;;;5044486;28;20439;-40
2021/03/22 08:55:29;;;;;;;9.37;3.37;;;11.50;45.10;;;;;;5051128;28;20773;-40
2021/03/22 08:58:00;;;;;;;9.70;2.73;;;11.20;45.20;;;;;;5040911;28;20517;-40
2021/03/22 09:00:33;;;;;;;14.03;2.67;;;11.30;45.20;;;;;;5046667;28;20442;-40
2021/03/22 09:03:12;;;;;;;8.23;2.90;;;11.40;45.50;;;;;;5039531;28;20530;-40
2021/03/22 09:05:39;;;;;;;7.50;2.90;;;11.40;45.40;;;;;;5046639;28;20439;-40
2021/03/22 09:08:22;;;;;;;7.07;2.50;;;11.30;45.60;;;;;;5042287;28;20439;-40
2021/03/22 09:10:51;;;;;;;6.70;2.00;;;11.50;45.50;;;;;;5046554;28;20800;-40
2021/03/22 09:13:25;;;;;;;12.20;3.00;;;11.40;45.50;;;;;;5041943;28;20428;-40
2021/03/22 09:16:12;;;;;;;7.80;2.43;;;11.40;46.10;;;;;;5039394;28;20489;-40
2021/03/22 09:19:06;;;;;;;11.03;2.60;;;11.30;46.00;;;;;;5036389;28;20815;-40
2021/03/22 09:21:32;;;;;;;9.00;2.57;;;11.20;46.80;;;;;;5038257;28;20443;-40
2021/03/22 09:23:58;;;;;;;11.03;2.53;;;11.30;46.60;;;;;;5036792;28;20451;-40
2021/03/22 09:26:55;;;;;;;8.00;3.07;;;11.50;46.50;;;;;;5033444;28;20495;-41
2021/03/22 09:29:40;;;;;;;9.10;2.70;;;11.60;45.70;;;;;;5039594;28;20232;-41
2021/03/22 09:32:33;;;;;;;9.93;2.80;;;11.50;45.40;;;;;;5047066;28;20533;-41
2021/03/22 09:35:18;;;;;;;7.60;2.63;;;11.50;45.40;;;;;;5048933;28;20470;-40
2021/03/22 09:37:58;;;;;;;11.03;2.90;;;11.30;45.70;;;;;;5051452;28;20439;-40
2021/03/22 09:40:27;;;;;;;8.87;2.87;;;11.40;45.90;;;;;;5042424;28;20443;-40
2021/03/22 09:43:09;;;;;;;5.87;3.07;;;11.40;46.10;;;;;;5041228;28;20435;-41
2021/03/22 09:45:50;;;;;;;7.30;1.87;;;11.40;46.10;;;;;;5044048;28;20438;-42
2021/03/22 09:48:41;;;;;;;7.20;2.10;;;11.40;45.50;;;;;;5042387;28;20458;-41
2021/03/22 09:51:06;;;;;;;5.53;2.40;;;11.60;45.50;;;;;;5036970;28;20813;-41
2021/03/22 09:53:50;;;;;;;5.63;2.30;;;11.50;45.30;;;;;;5052244;28;20431;-41
2021/03/22 09:56:28;;;;;;;6.87;3.03;;;11.40;45.40;;;;;;5042681;28;20231;-44
2021/03/22 09:59:14;;;;;;;11.37;2.87;;;11.50;45.40;;;;;;5044507;28;20446;-41
2021/03/22 10:01:41;;;;;;;7.30;2.67;;;11.60;45.10;;;;;;5047479;28;20450;-41
2021/03/22 10:04:13;;;;;;;6.77;2.30;;;11.80;44.90;;;;;;5039002;28;20435;-41
2021/03/22 10:07:06;;;;;;;6.10;2.77;;;12.00;45.00;;;;;;5047461;28;20545;-41
2021/03/22 10:09:39;;;;;;;7.23;2.57;;;12.10;44.60;;;;;;5045817;28;20442;-40
2021/03/22 10:12:15;;;;;;;6.77;2.30;;;12.30;44.20;;;;;;5047922;28;20448;-40
2021/03/22 10:14:45;;;;;;;8.13;2.57;;;12.40;43.90;;;;;;5049999;28;20839;-40
2021/03/22 10:17:30;;;;;;;7.17;3.00;;;12.30;43.50;;;;;;5047885;28;20431;-40
2021/03/22 10:20:04;;;;;;;8.73;2.30;;;12.40;43.50;;;;;;5040259;28;20942;-40
2021/03/22 10:22:31;;;;;;;7.70;2.90;;;12.40;43.20;;;;;;5042187;28;20432;-40
2021/03/22 10:25:16;;;;;;;16.53;3.50;;;12.40;42.90;;;;;;5050941;28;21294;-41
2021/03/22 10:27:42;;;;;;;7.43;1.80;;;12.50;43.50;;;;;;5046849;28;21186;-41
2021/03/22 10:30:23;;;;;;;6.70;2.70;;;12.60;42.50;;;;;;5046768;28;20427;-41
2021/03/22 10:32:58;;;;;;;5.93;2.37;;;12.70;42.40;;;;;;5044472;28;20306;-41
2021/03/22 10:35:29;;;;;;;7.00;2.80;;;12.70;42.30;;;;;;5043327;28;20447;-40
2021/03/22 10:37:56;;;;;;;10.17;2.33;;;12.50;42.40;;;;;;5041655;28;20431;-41
2021/03/22 10:40:38;;;;;;;7.60;2.90;;;12.60;42.80;;;;;;5043937;28;20573;-41
2021/03/22 10:43:07;;;;;;;9.20;2.50;;;12.50;43.30;;;;;;5045600;28;20446;-40
2021/03/22 10:45:39;;;;;;;5.07;2.50;;;12.30;43.60;;;;;;5047688;28;20435;-41
2021/03/22 10:48:22;;;;;;;6.50;2.37;;;12.20;44.10;;;;;;5045306;28;20482;-41
2021/03/22 10:51:09;;;;;;;7.47;2.47;;;12.10;44.00;;;;;;5047678;28;20931;-40
2021/03/22 10:53:50;;;;;;;8.00;2.53;;;12.20;43.90;;;;;;5048291;28;20469;-41
2021/03/22 10:56:29;;;;;;;5.67;2.53;;;12.20;43.80;;;;;;5047372;28;20475;-40
2021/03/22 10:58:58;;;;;;;9.00;2.60;;;12.10;43.80;;;;;;5049196;28;20534;-41
2021/03/22 11:01:31;;;;;;;7.07;2.60;;;12.00;43.90;;;;;;5047368;28;20443;-40
2021/03/22 11:04:25;;;;;;;11.60;3.50;;;11.90;44.20;;;;;;5046409;28;20492;-40
2021/03/22 11:06:51;;;;;;;8.40;2.47;;;11.80;44.60;;;;;;5038594;28;20498;-40
2021/03/22 11:09:22;;;;;;;7.20;2.50;;;11.80;44.60;;;;;;5047465;28;20459;-41
2021/03/22 11:11:48;;;;;;;9.03;4.43;;;11.70;44.70;;;;;;5049158;28;20442;-40
2021/03/22 11:14:17;;;;;;;7.50;2.30;;;11.90;44.80;;;;;;5047645;28;20791;-40
2021/03/22 11:16:44;;;;;;;4.17;2.37;;;11.80;44.90;;;;;;5046070;28;20435;-40
2021/03/22 11:19:12;;;;;;;4.90;2.33;;;11.70;44.80;;;;;;5044970;28;20968;-40
2021/03/22 11:21:39;;;;;;;4.00;2.00;;;11.80;45.00;;;;;;5048073;28;20447;-40
2021/03/22 11:24:14;;;;;;;7.93;2.13;;;11.80;44.60;;;;;;5047537;28;20442;-40
2021/03/22 11:26:55;;;;;;;3.57;2.83;;;11.70;44.80;;;;;;5044352;28;20496;-40
2021/03/22 11:29:26;;;;;;;6.40;2.70;;;11.70;44.80;;;;;;5048304;28;20462;-40
2021/03/22 11:32:02;;;;;;;4.87;2.83;;;11.80;44.50;;;;;;5031438;28;20930;-40
2021/03/22 11:34:34;;;;;;;6.60;2.20;;;11.70;44.30;;;;;;5038358;28;20435;-41
2021/03/22 11:37:08;;;;;;;6.87;2.03;;;11.80;44.40;;;;;;5039112;28;20443;-41
2021/03/22 11:39:35;;;;;;;7.30;2.20;;;11.90;44.20;;;;;;5037600;28;20948;-41
2021/03/22 11:42:25;;;;;;;6.33;2.00;;;12.10;44.20;;;;;;5031965;28;20447;-41
2021/03/22 11:44:51;;;;;;;3.40;1.70;;;12.10;43.50;;;;;;5044224;28;20451;-41
2021/03/22 11:47:36;;;;;;;6.80;2.10;;;12.30;43.50;;;;;;5051123;28;20493;-41
2021/03/22 11:50:31;;;;;;;5.53;2.27;;;12.40;43.40;;;;;;5045146;28;20485;-41
2021/03/22 11:53:03;;;;;;;5.80;2.10;;;12.50;43.00;;;;;;5036261;28;20447;-41
2021/03/22 11:55:50;;;;;;;6.43;2.60;;;12.40;42.30;;;;;;5046632;28;20450;-40
2021/03/22 11:58:39;;;;;;;7.10;2.73;;;12.40;42.50;;;;;;5043953;28;20450;-41
2021/03/22 12:01:30;;;;;;;5.00;2.50;;;12.50;42.80;;;;;;5043842;28;20439;-41
2021/03/22 12:04:05;;;;;;;2.93;2.03;;;12.40;42.60;;;;;;5043991;28;21045;-40
2021/03/22 12:06:33;;;;;;;4.93;1.87;;;12.40;42.70;;;;;;5042962;28;20568;-41
2021/03/22 12:08:59;;;;;;;4.47;2.33;;;12.30;42.80;;;;;;5043039;28;20867;-41
2021/03/22 12:11:27;;;;;;;5.63;2.10;;;12.30;43.40;;;;;;5051155;28;20505;-40
2021/03/22 12:13:55;;;;;;;3.97;1.53;;;12.30;42.50;;;;;;5044063;28;20200;-41
2021/03/22 12:16:24;;;;;;;5.33;2.20;;;12.30;42.60;;;;;;5045276;28;20793;-41
2021/03/22 12:18:53;;;;;;;5.70;2.50;;;12.10;42.90;;;;;;5042922;28;20432;-41
2021/03/22 12:21:19;;;;;;;8.83;2.63;;;12.00;43.20;;;;;;5045167;28;20423;-40
2021/03/22 12:23:45;;;;;;;7.00;1.80;;;12.00;43.80;;;;;;5047518;28;20484;-41
2021/03/22 12:26:17;;;;;;;10.80;2.90;;;11.90;43.90;;;;;;5043411;28;20479;-40
2021/03/22 12:28:54;;;;;;;4.83;1.70;;;11.90;43.90;;;;;;5046575;28;20219;-41
2021/03/22 12:31:41;;;;;;;3.63;2.10;;;12.10;43.70;;;;;;5048777;28;20442;-41
2021/03/22 12:34:11;;;;;;;4.60;2.50;;;12.30;43.20;;;;;;5040544;28;20423;-41
2021/03/22 12:36:37;;;;;;;8.53;2.77;;;12.30;42.60;;;;;;5048199;28;20450;-40
2021/03/22 12:39:17;;;;;;;4.73;1.90;;;12.30;43.00;;;;;;5043285;28;20504;-40
2021/03/22 12:41:42;;;;;;;6.47;2.33;;;12.20;43.40;;;;;;5046828;28;20192;-40
2021/03/22 12:44:08;;;;;;;14.83;2.90;;;12.30;43.40;;;;;;5045050;28;20469;-40
2021/03/22 12:46:33;;;;;;;6.10;2.23;;;12.40;43.40;;;;;;5042623;28;20307;-40
2021/03/22 12:48:59;;;;;;;9.60;3.33;;;12.40;43.40;;;;;;5045848;28;20192;-40
2021/03/22 12:51:25;;;;;;;2.90;2.10;;;12.30;43.30;;;;;;5043608;28;20671;-40
2021/03/22 12:53:50;;;;;;;2.77;2.07;;;12.40;43.30;;;;;;5046919;28;21122;-40
2021/03/22 12:56:19;;;;;;;6.37;2.40;;;12.40;43.20;;;;;;5046903;28;20639;-40
2021/03/22 12:58:44;;;;;;;6.17;2.50;;;12.40;43.50;;;;;;5046603;28;20574;-41
2021/03/22 13:01:15;;;;;;;3.40;2.00;;;12.40;43.50;;;;;;5046962;28;20431;-41
2021/03/22 13:03:44;;;;;;;3.10;1.87;;;12.40;43.60;;;;;;5046686;28;20289;-41
2021/03/22 13:06:09;;;;;;;6.40;2.53;;;12.20;43.70;;;;;;5044141;28;20499;-41
2021/03/22 13:08:35;;;;;;;5.23;2.13;;;12.00;44.20;;;;;;5041638;28;20427;-41
2021/03/22 13:11:01;;;;;;;5.30;2.07;;;12.10;44.40;;;;;;5045260;28;20189;-41
2021/03/22 13:13:26;;;;;;;3.67;1.80;;;11.90;44.30;;;;;;5049033;28;20197;-41
2021/03/22 13:15:53;;;;;;;7.30;2.70;;;12.10;44.50;;;;;;5046304;28;20257;-41